createdAt,value
2019-06-08T00:00:38.980Z,19.50
2019-06-08T00:03:05.949Z,19.50
2019-06-08T00:05:32.908Z,19.50
2019-06-08T00:07:59.884Z,19.50
2019-06-08T00:10:26.852Z,19.50
2019-06-08T00:12:53.772Z,19.50
2019-06-08T00:19:02.025Z,19.50
2019-06-08T00:21:29.019Z,19.50
2019-06-08T00:23:56.011Z,19.40
2019-06-08T00:26:24.240Z,19.50
2019-06-08T00:28:51.752Z,19.50
2019-06-08T00:31:19.958Z,19.40
2019-06-08T00:33:47.373Z,19.40
2019-06-08T00:36:14.756Z,19.40
2019-06-08T00:38:42.096Z,19.40
2019-06-08T00:41:09.105Z,19.30
2019-06-08T00:43:36.201Z,19.30
2019-06-08T00:46:03.237Z,19.20
2019-06-08T00:48:30.195Z,19.20
2019-06-08T00:50:57.209Z,19.20
2019-06-08T00:53:25.425Z,19.10
2019-06-08T00:55:52.520Z,19.10
2019-06-08T00:58:20.385Z,19.10
2019-06-08T01:00:49.027Z,19.10
2019-06-08T01:03:17.598Z,19.10
2019-06-08T01:05:45.110Z,19.10
2019-06-08T01:08:12.313Z,19.00
2019-06-08T01:17:29.331Z,19.00
2019-06-08T01:19:56.364Z,19.00
2019-06-08T01:22:23.669Z,18.90
2019-06-08T01:24:50.834Z,18.90
2019-06-08T01:27:17.926Z,18.90
2019-06-08T01:29:44.959Z,18.90
2019-06-08T01:32:12.035Z,18.80
2019-06-08T01:34:39.151Z,18.80
2019-06-08T01:37:06.352Z,18.80
2019-06-08T01:39:34.465Z,18.70
2019-06-08T01:42:01.516Z,18.70
2019-06-08T01:44:29.914Z,18.70
2019-06-08T01:46:57.388Z,18.70
2019-06-08T01:49:26.204Z,18.80
2019-06-08T01:51:53.522Z,18.80
2019-06-08T01:54:20.635Z,18.80
2019-06-08T01:56:47.611Z,18.80
2019-06-08T01:59:14.624Z,18.80
2019-06-08T02:01:41.609Z,18.70
2019-06-08T02:04:08.674Z,18.70
2019-06-08T02:06:35.705Z,18.70
2019-06-08T02:09:06.186Z,18.70
2019-06-08T02:11:33.306Z,18.70
2019-06-08T02:14:01.030Z,18.70
2019-06-08T02:19:10.449Z,18.60
2019-06-08T02:21:37.433Z,18.70
2019-06-08T02:24:04.430Z,18.70
2019-06-08T02:26:32.168Z,18.70
2019-06-08T02:29:00.130Z,18.70
2019-06-08T02:31:27.986Z,18.70
2019-06-08T02:33:55.032Z,18.60
2019-06-08T02:36:21.989Z,18.70
2019-06-08T02:38:48.945Z,18.70
2019-06-08T02:41:15.928Z,18.70
2019-06-08T02:43:42.898Z,18.70
2019-06-08T02:46:09.898Z,18.80
2019-06-08T02:48:56.291Z,18.80
2019-06-08T02:51:06.103Z,18.90
2019-06-08T02:53:34.139Z,18.80
2019-06-08T02:56:14.953Z,18.90
2019-06-08T02:58:42.738Z,18.90
2019-06-08T03:01:09.728Z,18.90
2019-06-08T03:03:38.363Z,19.00
2019-06-08T03:06:05.935Z,19.00
2019-06-08T03:08:36.282Z,19.00
2019-06-08T03:11:04.831Z,19.10
2019-06-08T03:13:33.574Z,19.10
2019-06-08T03:16:02.238Z,19.10
2019-06-08T03:18:29.292Z,19.10
2019-06-08T03:20:56.229Z,19.10
2019-06-08T03:23:23.209Z,19.20
2019-06-08T03:25:52.731Z,19.20
2019-06-08T03:28:18.950Z,19.30
2019-06-08T03:30:53.836Z,19.30
2019-06-08T03:33:14.638Z,19.40
2019-06-08T03:35:52.661Z,19.40
2019-06-08T03:38:11.748Z,19.50
2019-06-08T03:40:40.429Z,19.60
2019-06-08T03:43:07.692Z,19.70
2019-06-08T03:45:36.221Z,19.80
2019-06-08T03:48:03.702Z,19.90
2019-06-08T03:50:30.653Z,19.90
2019-06-08T03:52:57.626Z,20.00
2019-06-08T03:55:24.587Z,20.00
2019-06-08T03:58:11.268Z,20.10
2019-06-08T04:00:38.332Z,20.10
2019-06-08T04:03:05.294Z,20.20
2019-06-08T04:05:32.251Z,20.40
2019-06-08T04:08:00.288Z,20.50
2019-06-08T04:10:42.082Z,20.50
2019-06-08T04:13:11.798Z,20.70
2019-06-08T04:15:40.405Z,20.90
2019-06-08T04:18:07.909Z,21.00
2019-06-08T04:20:34.878Z,21.10
2019-06-08T04:23:01.811Z,21.20
2019-06-08T04:25:28.776Z,21.20
2019-06-08T04:27:55.720Z,21.20
2019-06-08T04:30:22.803Z,21.40
2019-06-08T04:32:49.796Z,21.50
2019-06-08T04:35:16.807Z,21.60
2019-06-08T04:37:44.864Z,21.80
2019-06-08T04:40:14.456Z,21.90
2019-06-08T04:42:42.339Z,22.00
2019-06-08T04:45:10.278Z,22.20
2019-06-08T04:47:38.385Z,22.40
2019-06-08T04:50:21.687Z,22.40
2019-06-08T04:52:34.948Z,22.30
2019-06-08T04:55:05.088Z,22.30
2019-06-08T04:57:32.052Z,22.40
2019-06-08T04:59:58.994Z,22.50
2019-06-08T05:02:25.962Z,22.70
2019-06-08T05:04:53.167Z,22.90
2019-06-08T05:07:20.108Z,23.00
2019-06-08T05:09:49.321Z,23.20
2019-06-08T05:12:16.872Z,23.30
2019-06-08T05:14:45.092Z,23.40
2019-06-08T05:17:12.105Z,23.40
2019-06-08T05:19:39.279Z,23.50
2019-06-08T05:22:06.397Z,23.80
2019-06-08T05:24:33.361Z,23.80
2019-06-08T05:27:00.295Z,24.00
2019-06-08T05:29:27.301Z,24.10
2019-06-08T05:31:55.358Z,24.30
2019-06-08T05:34:22.316Z,24.30
2019-06-08T05:36:50.035Z,24.40
2019-06-08T05:39:17.354Z,24.50
2019-06-08T05:41:45.470Z,24.40
2019-06-08T05:44:12.711Z,24.60
2019-06-08T05:46:39.940Z,24.70
2019-06-08T05:49:06.876Z,24.90
2019-06-08T05:51:33.822Z,25.00
2019-06-08T05:54:02.974Z,25.00
2019-06-08T05:56:29.556Z,25.00
2019-06-08T05:58:56.512Z,25.20
2019-06-08T06:01:23.436Z,25.30
2019-06-08T06:03:51.764Z,25.40
2019-06-08T06:06:18.943Z,25.70
2019-06-08T06:08:46.610Z,25.70
2019-06-08T06:11:13.669Z,26.00
2019-06-08T06:13:40.658Z,26.10
2019-06-08T06:16:07.588Z,26.10
2019-06-08T06:18:34.523Z,26.20
2019-06-08T06:21:11.149Z,26.30
2019-06-08T06:23:30.235Z,26.40
2019-06-08T06:25:57.188Z,26.50
2019-06-08T06:28:24.669Z,26.40
2019-06-08T06:30:52.225Z,26.40
2019-06-08T06:33:19.587Z,26.50
2019-06-08T06:35:47.802Z,26.50
2019-06-08T06:38:14.809Z,26.70
2019-06-08T06:40:41.926Z,26.90
2019-06-08T06:43:08.944Z,26.80
2019-06-08T06:45:35.924Z,27.00
2019-06-08T06:48:02.975Z,27.30
2019-06-08T06:50:29.935Z,27.20
2019-06-08T06:52:57.261Z,27.20
2019-06-08T06:55:25.448Z,27.10
2019-06-08T06:57:53.562Z,27.40
2019-06-08T07:00:32.307Z,27.60
2019-06-08T07:02:59.968Z,27.50
2019-06-08T07:05:27.621Z,27.80
2019-06-08T07:07:54.676Z,27.90
2019-06-08T07:10:21.615Z,27.90
2019-06-08T07:12:48.703Z,28.00
2019-06-08T07:15:19.226Z,27.80
2019-06-08T07:17:46.200Z,27.90
2019-06-08T07:20:13.338Z,27.90
2019-06-08T07:22:40.301Z,27.60
2019-06-08T07:25:07.381Z,27.50
2019-06-08T07:27:34.439Z,27.60
2019-06-08T07:30:01.406Z,27.80
2019-06-08T07:32:28.377Z,27.90
2019-06-08T07:34:55.994Z,28.10
2019-06-08T07:37:22.957Z,28.10
2019-06-08T07:39:50.121Z,28.30
2019-06-08T07:42:18.663Z,28.20
2019-06-08T07:44:46.763Z,28.20
2019-06-08T07:47:14.064Z,28.30
2019-06-08T07:49:41.016Z,28.40
2019-06-08T07:52:10.627Z,28.60
2019-06-08T07:54:36.754Z,28.80
2019-06-08T07:57:03.696Z,28.80
2019-06-08T07:59:30.733Z,28.60
2019-06-08T08:01:58.482Z,28.70
2019-06-08T08:04:25.446Z,28.70
2019-06-08T08:06:52.541Z,28.60
2019-06-08T08:09:19.555Z,28.80
2019-06-08T08:11:46.489Z,28.90
2019-06-08T08:14:13.451Z,28.70
2019-06-08T08:16:40.397Z,28.60
2019-06-08T08:19:07.420Z,28.80
2019-06-08T08:21:34.340Z,28.90
2019-06-08T08:24:01.807Z,29.10
2019-06-08T08:26:31.297Z,29.00
2019-06-08T08:29:02.530Z,29.10
2019-06-08T08:31:27.851Z,29.20
2019-06-08T08:34:03.057Z,29.30
2019-06-08T08:36:28.869Z,29.30
2019-06-08T08:38:56.651Z,29.30
2019-06-08T08:41:24.579Z,29.40
2019-06-08T08:43:53.303Z,29.50
2019-06-08T08:46:20.287Z,29.40
2019-06-08T08:48:48.636Z,29.50
2019-06-08T08:51:17.990Z,29.50
2019-06-08T08:53:44.623Z,29.70
2019-06-08T08:56:11.605Z,29.70
2019-06-08T08:58:38.565Z,29.90
2019-06-08T09:01:07.991Z,29.90
2019-06-08T09:03:34.278Z,30.00
2019-06-08T09:06:03.688Z,29.90
2019-06-08T09:08:30.116Z,30.10
2019-06-08T09:10:59.595Z,30.10
2019-06-08T09:13:28.129Z,30.10
2019-06-08T09:15:55.761Z,29.90
2019-06-08T09:18:23.481Z,29.80
2019-06-08T09:20:52.371Z,29.70
2019-06-08T09:23:28.055Z,30.00
2019-06-08T09:26:00.423Z,30.00
2019-06-08T09:28:28.363Z,30.20
2019-06-08T09:30:56.162Z,30.40
2019-06-08T09:33:23.325Z,30.30
2019-06-08T09:35:50.280Z,30.00
2019-06-08T09:38:18.636Z,29.90
2019-06-08T09:40:48.743Z,30.20
2019-06-08T09:43:14.749Z,30.30
2019-06-08T09:45:41.791Z,30.30
2019-06-08T09:48:09.437Z,30.10
2019-06-08T09:50:38.532Z,30.30
2019-06-08T09:53:22.053Z,30.20
2019-06-08T09:55:34.223Z,30.10
2019-06-08T09:58:05.112Z,30.20
2019-06-08T10:00:30.094Z,30.00
2019-06-08T10:03:01.314Z,30.20
2019-06-08T10:05:27.583Z,30.30
2019-06-08T10:07:54.616Z,30.30
2019-06-08T10:10:21.594Z,30.20
2019-06-08T10:12:48.642Z,30.30
2019-06-08T10:15:17.877Z,30.50
2019-06-08T10:17:47.436Z,30.60
2019-06-08T10:20:14.970Z,30.30
2019-06-08T10:22:41.894Z,30.40
2019-06-08T10:25:11.212Z,30.40
2019-06-08T10:27:38.656Z,30.60
2019-06-08T10:30:09.879Z,30.60
2019-06-08T10:32:58.507Z,30.40
2019-06-08T10:35:28.222Z,30.50
2019-06-08T10:37:55.737Z,30.30
2019-06-08T10:40:23.572Z,30.30
2019-06-08T10:42:50.537Z,30.40
2019-06-08T10:45:18.560Z,30.50
2019-06-08T10:47:47.776Z,30.50
2019-06-08T10:50:15.513Z,30.50
2019-06-08T10:52:43.060Z,30.60
2019-06-08T10:55:12.078Z,30.30
2019-06-08T10:57:38.805Z,29.60
2019-06-08T11:00:18.018Z,29.50
2019-06-08T11:02:40.626Z,29.50
2019-06-08T11:05:11.698Z,29.60
2019-06-08T11:07:35.009Z,29.70
2019-06-08T11:10:03.662Z,29.50
2019-06-08T11:12:32.016Z,29.40
2019-06-08T11:14:59.914Z,29.30
2019-06-08T11:17:27.982Z,29.20
2019-06-08T11:19:55.260Z,29.10
2019-06-08T11:22:22.257Z,29.20
2019-06-08T11:24:49.196Z,29.20
2019-06-08T11:27:18.615Z,29.10
2019-06-08T11:29:47.634Z,29.10
2019-06-08T11:32:13.688Z,29.20
2019-06-08T11:34:40.670Z,29.40
2019-06-08T11:37:11.867Z,29.30
2019-06-08T11:39:38.242Z,29.30
2019-06-08T11:42:08.735Z,29.30
2019-06-08T11:44:34.165Z,29.50
2019-06-08T11:47:02.397Z,29.20
2019-06-08T11:49:29.665Z,29.00
2019-06-08T11:51:58.334Z,29.10
2019-06-08T11:54:36.142Z,29.00
2019-06-08T11:56:57.394Z,29.10
2019-06-08T11:59:24.239Z,29.10
2019-06-08T12:01:51.211Z,29.00
2019-06-08T12:04:18.516Z,28.90
2019-06-08T12:06:45.519Z,29.10
2019-06-08T12:09:13.916Z,29.20
2019-06-08T12:11:41.088Z,29.10
2019-06-08T12:14:09.725Z,29.10
2019-06-08T12:16:37.796Z,29.30
2019-06-08T12:19:06.816Z,29.60
2019-06-08T12:21:33.908Z,29.70
2019-06-08T12:24:00.870Z,29.90
2019-06-08T12:26:27.823Z,30.10
2019-06-08T12:28:57.968Z,30.00
2019-06-08T12:31:24.698Z,30.00
2019-06-08T12:33:51.717Z,30.00
2019-06-08T12:36:20.704Z,30.20
2019-06-08T12:38:48.675Z,30.30
2019-06-08T12:41:16.047Z,30.30
2019-06-08T12:43:43.140Z,30.20
2019-06-08T12:46:11.634Z,30.20
2019-06-08T12:48:39.098Z,30.20
2019-06-08T12:52:10.119Z,30.30
2019-06-08T12:54:37.499Z,30.00
2019-06-08T12:57:04.532Z,29.70
2019-06-08T12:59:31.794Z,29.80
2019-06-08T13:01:58.816Z,29.70
2019-06-08T13:04:25.786Z,29.80
2019-06-08T13:06:53.464Z,30.00
2019-06-08T13:09:20.693Z,30.00
2019-06-08T13:11:50.421Z,29.80
2019-06-08T13:14:20.379Z,29.60
2019-06-08T13:16:48.632Z,29.10
2019-06-08T13:19:17.378Z,29.10
2019-06-08T13:21:45.005Z,28.90
2019-06-08T13:24:13.073Z,29.00
2019-06-08T13:26:40.507Z,29.00
2019-06-08T13:29:09.243Z,29.40
2019-06-08T13:31:37.924Z,29.40
2019-06-08T13:34:05.209Z,29.70
2019-06-08T13:36:32.226Z,29.90
2019-06-08T13:38:59.285Z,29.90
2019-06-08T13:41:29.083Z,29.90
2019-06-08T13:43:55.126Z,29.60
2019-06-08T13:46:23.599Z,29.20
2019-06-08T13:48:50.912Z,29.00
2019-06-08T13:51:20.735Z,29.10
2019-06-08T13:53:47.880Z,29.10
2019-06-08T13:56:17.916Z,29.20
2019-06-08T13:58:44.536Z,29.20
2019-06-08T14:01:11.497Z,29.20
2019-06-08T14:03:49.774Z,29.30
2019-06-08T14:06:24.990Z,29.40
2019-06-08T14:08:59.242Z,29.30
2019-06-08T14:11:31.000Z,29.20
2019-06-08T14:14:09.671Z,29.30
2019-06-08T14:16:50.454Z,29.50
2019-06-08T14:19:32.300Z,29.60
2019-06-08T14:22:28.482Z,29.60
2019-06-08T14:25:10.625Z,29.70
2019-06-08T14:27:58.906Z,29.50
2019-06-08T14:30:40.686Z,29.50
2019-06-08T14:33:23.668Z,29.50
2019-06-08T14:35:59.119Z,29.50
2019-06-08T14:38:41.030Z,29.50
2019-06-08T14:41:09.214Z,29.60
2019-06-08T14:43:38.191Z,29.60
2019-06-08T14:46:12.023Z,29.70
2019-06-08T14:48:45.760Z,29.70
2019-06-08T14:51:22.314Z,29.90
2019-06-08T14:53:50.395Z,29.90
2019-06-08T14:56:19.440Z,29.60
2019-06-08T14:58:48.322Z,29.30
2019-06-08T15:01:19.283Z,29.00
2019-06-08T15:03:43.764Z,28.80
2019-06-08T15:06:11.844Z,28.60
2019-06-08T15:08:39.322Z,28.40
2019-06-08T15:11:08.307Z,28.20
2019-06-08T15:13:37.364Z,28.10
2019-06-08T15:16:04.116Z,27.90
2019-06-08T15:18:32.085Z,27.70
2019-06-08T15:20:59.045Z,27.60
2019-06-08T15:23:28.956Z,27.50
2019-06-08T15:25:55.282Z,27.40
2019-06-08T15:28:22.612Z,27.40
2019-06-08T15:30:49.816Z,27.40
2019-06-08T15:33:18.113Z,27.30
2019-06-08T15:35:47.535Z,27.30
2019-06-08T15:38:14.618Z,27.30
2019-06-08T15:40:41.561Z,27.30
2019-06-08T15:43:08.800Z,27.30
2019-06-08T15:45:37.080Z,27.30
2019-06-08T15:48:04.030Z,27.30
2019-06-08T15:50:30.967Z,27.20
2019-06-08T15:53:00.033Z,27.30
2019-06-08T15:55:29.005Z,27.20
2019-06-08T15:57:55.449Z,27.10
2019-06-08T16:00:23.081Z,27.10
2019-06-08T16:02:50.530Z,27.10
2019-06-08T16:05:17.485Z,27.00
2019-06-08T16:07:44.433Z,27.00
2019-06-08T16:10:12.613Z,27.00
2019-06-08T16:12:39.633Z,26.90
2019-06-08T16:15:06.860Z,26.90
2019-06-08T16:17:33.836Z,26.80
2019-06-08T16:20:01.071Z,26.70
2019-06-08T16:22:28.041Z,26.70
2019-06-08T16:24:55.683Z,26.70
2019-06-08T16:27:22.672Z,26.60
2019-06-08T16:29:49.629Z,26.60
2019-06-08T16:32:16.588Z,26.60
2019-06-08T16:34:43.556Z,26.60
2019-06-08T16:37:10.534Z,26.60
2019-06-08T16:39:37.488Z,26.50
2019-06-08T16:42:04.438Z,26.50
2019-06-08T16:44:32.217Z,26.40
2019-06-08T16:46:59.367Z,26.50
2019-06-08T16:49:27.112Z,26.40
2019-06-08T16:51:55.345Z,26.10
2019-06-08T16:54:22.297Z,25.80
2019-06-08T16:56:49.932Z,25.60
2019-06-08T16:59:17.663Z,25.50
2019-06-08T17:01:44.829Z,25.30
2019-06-08T17:04:11.784Z,25.10
2019-06-08T17:06:39.478Z,25.00
2019-06-08T17:09:07.803Z,24.90
2019-06-08T17:11:34.760Z,24.90
2019-06-08T17:14:01.704Z,24.80
2019-06-08T17:16:29.890Z,24.80
2019-06-08T17:18:57.237Z,24.70
2019-06-08T17:21:24.184Z,24.70
2019-06-08T17:23:51.161Z,24.60
2019-06-08T17:26:18.123Z,24.50
2019-06-08T17:28:45.056Z,24.50
2019-06-08T17:31:12.011Z,24.40
2019-06-08T17:33:41.419Z,24.30
2019-06-08T17:36:08.606Z,24.30
2019-06-08T17:38:35.575Z,24.20
2019-06-08T17:41:02.572Z,24.20
2019-06-08T17:43:29.580Z,24.20
2019-06-08T17:45:57.150Z,24.20
2019-06-08T17:48:24.143Z,24.10
2019-06-08T17:50:51.100Z,24.10
2019-06-08T17:53:18.099Z,24.10
2019-06-08T17:55:45.024Z,24.00
2019-06-08T17:58:12.036Z,24.00
2019-06-08T18:00:39.509Z,23.90
2019-06-08T18:03:08.358Z,23.90
2019-06-08T18:05:36.716Z,23.90
2019-06-08T18:08:04.384Z,23.80
2019-06-08T18:10:32.148Z,23.80
2019-06-08T18:12:59.153Z,23.80
2019-06-08T18:15:28.398Z,23.80
2019-06-08T18:17:57.564Z,23.80
2019-06-08T18:20:24.183Z,23.80
2019-06-08T18:22:51.177Z,23.80
2019-06-08T18:25:18.223Z,23.80
2019-06-08T18:28:05.456Z,23.70
2019-06-08T18:30:18.962Z,23.70
2019-06-08T18:32:48.369Z,23.70
2019-06-08T18:35:14.984Z,23.60
2019-06-08T18:37:42.866Z,23.60
2019-06-08T18:40:13.781Z,23.60
2019-06-08T18:42:42.393Z,23.50
2019-06-08T18:45:10.753Z,23.50
2019-06-08T18:47:39.338Z,23.50
2019-06-08T18:50:08.813Z,23.40
2019-06-08T18:52:39.872Z,23.50
2019-06-08T18:55:08.353Z,23.50
2019-06-08T18:57:38.497Z,23.50
2019-06-08T19:00:10.980Z,23.40
2019-06-08T19:02:39.947Z,23.50
2019-06-08T19:05:08.260Z,23.40
2019-06-08T19:07:35.048Z,23.20
2019-06-08T19:10:04.019Z,23.20
2019-06-08T19:12:30.962Z,23.30
2019-06-08T19:14:58.635Z,23.10
2019-06-08T19:17:28.266Z,23.10
2019-06-08T19:19:58.019Z,23.10
2019-06-08T19:22:27.944Z,23.10
2019-06-08T19:24:54.151Z,23.00
2019-06-08T19:27:21.136Z,22.90
2019-06-08T19:29:51.420Z,22.90
2019-06-08T19:34:54.424Z,23.00
2019-06-08T19:37:18.716Z,23.00
2019-06-08T19:39:47.854Z,23.00
2019-06-08T19:42:17.411Z,22.90
2019-06-08T19:44:54.095Z,22.80
2019-06-08T19:47:17.601Z,22.70
2019-06-08T19:49:54.725Z,22.70
2019-06-08T19:52:26.156Z,22.70
2019-06-08T19:54:58.143Z,22.60
2019-06-08T19:57:29.695Z,22.50
2019-06-08T20:00:00.373Z,22.50
2019-06-08T20:02:30.517Z,22.50
2019-06-08T20:05:00.330Z,22.40
2019-06-08T20:07:40.765Z,22.30
2019-06-08T20:10:13.988Z,22.40
2019-06-08T20:12:47.962Z,22.30
2019-06-08T20:15:18.613Z,22.40
2019-06-08T20:20:22.114Z,22.40
2019-06-08T20:22:51.801Z,22.40
2019-06-08T20:25:19.941Z,22.40
2019-06-08T20:27:50.353Z,22.30
2019-06-08T20:30:17.784Z,22.40
2019-06-08T20:32:49.507Z,22.30
2019-06-08T20:35:17.448Z,22.30
2019-06-08T20:37:45.650Z,22.30
2019-06-08T20:40:14.205Z,22.20
2019-06-08T20:42:42.277Z,22.20
2019-06-08T20:45:12.427Z,22.20
2019-06-08T20:47:42.054Z,22.20
2019-06-08T20:50:11.914Z,22.20
2019-06-08T20:52:49.272Z,22.20
2019-06-08T20:55:18.934Z,22.20
2019-06-08T20:57:50.916Z,22.20
2019-06-08T21:00:23.815Z,22.20
2019-06-08T21:03:02.747Z,22.10
2019-06-08T21:05:27.849Z,22.10
2019-06-08T21:07:58.702Z,22.10
2019-06-08T21:10:24.592Z,22.10
2019-06-08T21:12:52.974Z,22.10
2019-06-08T21:15:20.556Z,22.10
2019-06-08T21:17:49.464Z,22.10
2019-06-08T21:20:17.712Z,22.10
2019-06-08T21:22:46.816Z,22.10
2019-06-08T21:25:13.917Z,22.00
2019-06-08T21:27:40.895Z,22.00
2019-06-08T21:30:20.233Z,22.00
2019-06-08T21:32:38.025Z,22.00
2019-06-08T21:35:07.634Z,21.90
2019-06-08T21:37:37.536Z,21.80
2019-06-08T21:40:08.321Z,21.70
2019-06-08T21:42:36.974Z,21.60
2019-06-08T21:45:09.182Z,21.50
2019-06-08T21:47:35.007Z,21.40
2019-06-08T21:50:04.060Z,21.30
2019-06-08T21:52:31.008Z,21.30
2019-06-08T21:54:59.309Z,21.20
2019-06-08T21:57:27.745Z,21.10
2019-06-08T22:00:16.307Z,21.00
2019-06-08T22:02:24.304Z,21.00
2019-06-08T22:04:53.792Z,20.90
2019-06-08T22:07:20.232Z,21.00
2019-06-08T22:09:47.983Z,20.90
2019-06-08T22:12:17.263Z,20.90
2019-06-08T22:14:43.828Z,20.90
2019-06-08T22:20:11.748Z,20.80
2019-06-08T22:22:38.691Z,20.80
2019-06-08T22:25:09.189Z,20.80
2019-06-08T22:27:48.309Z,20.80
2019-06-08T22:30:32.384Z,20.80
2019-06-08T22:32:49.435Z,20.80
2019-06-08T22:35:22.158Z,20.80
2019-06-08T22:37:55.091Z,20.80
2019-06-08T22:40:27.881Z,20.80
2019-06-08T22:43:00.863Z,20.80
2019-06-08T22:45:33.115Z,20.70
2019-06-08T22:48:03.737Z,20.50
2019-06-08T22:50:33.739Z,20.50
2019-06-08T22:53:07.921Z,20.40
2019-06-08T22:55:40.821Z,20.40
2019-06-08T22:58:13.014Z,20.40
2019-06-08T23:00:52.061Z,20.50
2019-06-08T23:03:33.527Z,20.50
2019-06-08T23:06:04.430Z,20.50
2019-06-08T23:08:34.154Z,20.50
2019-06-08T23:11:03.547Z,20.50
2019-06-08T23:13:30.425Z,20.50
2019-06-08T23:19:17.410Z,20.60
2019-06-08T23:21:44.654Z,20.50
2019-06-08T23:24:11.990Z,20.50
2019-06-08T23:26:38.906Z,20.50
2019-06-08T23:29:07.797Z,20.50
2019-06-08T23:31:34.609Z,20.50
2019-06-08T23:34:03.943Z,20.40
2019-06-08T23:36:46.767Z,20.50
2019-06-08T23:38:59.132Z,20.50
2019-06-08T23:41:27.259Z,20.50
2019-06-08T23:43:54.405Z,20.40
2019-06-08T23:46:21.281Z,20.30
2019-06-08T23:48:48.621Z,20.20
2019-06-08T23:51:17.913Z,20.10
2019-06-08T23:53:47.822Z,20.00
2019-06-08T23:56:15.123Z,20.00
2019-06-08T23:58:43.336Z,19.90
